Time;durP1;ratioP1;P1;durP2;ratioP2;P2;SDS_P1;SDS_P2;PMS_P1;PMS_P2;Temp;Humidity;BMP_temperature;BMP_pressure;BME280_temperature;BME280_humidity;BME280_pressure;Samples;Min_cycle;Max_cycle;Signal;HPM_P1;HPM_P2
2022/07/07 00:01:00;;;;;;;3.00;1.20;;;17.40;99.90;;;;;;5018670;28;20213;-78
2022/07/07 00:03:50;;;;;;;4.13;1.58;;;17.40;99.90;;;;;;5015731;28;20278;-79
2022/07/07 00:06:39;;;;;;;2.50;1.50;;;17.20;99.90;;;;;;5009002;28;20353;-80
2022/07/07 00:09:30;;;;;;;3.13;1.80;;;17.30;99.90;;;;;;5010094;28;20722;-78
2022/07/07 00:12:18;;;;;;;2.63;1.60;;;17.20;99.90;;;;;;5020423;28;20311;-82
2022/07/07 00:15:08;;;;;;;2.88;1.27;;;17.30;99.90;;;;;;5021590;28;20237;-81
2022/07/07 00:17:59;;;;;;;2.80;1.80;;;17.30;99.90;;;;;;5023619;28;20221;-80
2022/07/07 00:20:47;;;;;;;2.08;1.35;;;17.30;99.90;;;;;;5008683;28;20226;-82
2022/07/07 00:23:36;;;;;;;3.35;1.88;;;17.20;99.90;;;;;;5020587;28;20227;-81
2022/07/07 00:26:25;;;;;;;1.52;1.23;;;17.20;99.90;;;;;;5022690;28;20222;-80
2022/07/07 00:29:14;;;;;;;2.70;1.33;;;17.30;99.90;;;;;;5017328;28;20236;-82
2022/07/07 00:32:02;;;;;;;1.98;1.33;;;17.20;99.90;;;;;;5010376;28;20734;-80
2022/07/07 00:34:56;;;;;;;4.65;1.40;;;17.30;99.90;;;;;;5017686;28;20287;-79
2022/07/07 00:37:44;;;;;;;2.03;1.27;;;17.30;99.90;;;;;;5010951;28;20229;-80
2022/07/07 00:40:33;;;;;;;1.65;1.20;;;17.30;99.90;;;;;;5023275;28;20224;-78
2022/07/07 00:43:22;;;;;;;1.90;1.10;;;17.30;99.90;;;;;;5021118;28;20660;-79
2022/07/07 00:46:12;;;;;;;3.22;1.35;;;17.40;99.90;;;;;;5009569;28;20233;-79
2022/07/07 00:49:05;;;;;;;2.00;1.40;;;17.30;99.90;;;;;;5023006;28;20245;-78
2022/07/07 00:51:55;;;;;;;1.55;1.08;;;17.30;99.90;;;;;;5005695;28;20222;-79
2022/07/07 00:54:52;;;;;;;2.38;1.33;;;17.30;99.90;;;;;;5021579;28;20726;-78
2022/07/07 00:57:41;;;;;;;2.10;1.08;;;17.30;99.90;;;;;;5025302;28;20224;-79
2022/07/07 01:00:30;;;;;;;1.98;1.10;;;17.30;99.90;;;;;;5010682;28;20230;-79
2022/07/07 01:03:19;;;;;;;1.60;1.10;;;17.30;99.90;;;;;;5019771;28;20218;-79
2022/07/07 01:06:08;;;;;;;1.38;1.02;;;17.30;99.90;;;;;;5026230;28;20639;-78
2022/07/07 01:08:58;;;;;;;4.38;1.10;;;17.20;99.90;;;;;;5003589;28;20596;-78
2022/07/07 01:11:48;;;;;;;5.38;1.30;;;17.10;99.90;;;;;;5020355;28;20229;-78
2022/07/07 01:14:40;;;;;;;3.70;1.20;;;17.20;99.90;;;;;;5014923;28;20222;-80
2022/07/07 01:17:29;;;;;;;2.25;1.20;;;17.00;99.90;;;;;;5017150;28;20220;-80
2022/07/07 01:20:20;;;;;;;4.97;1.30;;;17.10;99.90;;;;;;5017698;28;20233;-78
2022/07/07 01:23:10;;;;;;;3.08;1.23;;;17.10;99.90;;;;;;5024606;28;20232;-78
2022/07/07 01:25:59;;;;;;;1.90;1.30;;;17.20;99.90;;;;;;5016889;28;20222;-79
2022/07/07 01:28:47;;;;;;;2.90;1.23;;;17.20;99.90;;;;;;5004708;28;20222;-78
2022/07/07 01:31:36;;;;;;;1.63;1.10;;;17.20;99.90;;;;;;5018095;28;20233;-78
2022/07/07 01:34:24;;;;;;;3.88;1.48;;;17.20;99.90;;;;;;5021315;28;20221;-79
2022/07/07 01:37:13;;;;;;;1.38;0.98;;;17.20;99.90;;;;;;5004053;28;20362;-79
2022/07/07 01:40:04;;;;;;;1.80;1.15;;;17.20;99.90;;;;;;5016058;28;20218;-78
2022/07/07 01:42:53;;;;;;;2.22;1.23;;;17.10;99.90;;;;;;5021824;28;20582;-79
2022/07/07 01:45:41;;;;;;;2.25;1.33;;;17.00;99.90;;;;;;5020604;28;20595;-80
2022/07/07 01:48:30;;;;;;;2.05;1.17;;;17.00;99.90;;;;;;5021068;28;20225;-79
2022/07/07 01:51:19;;;;;;;2.92;1.30;;;17.00;99.90;;;;;;5017027;28;20715;-79
2022/07/07 01:54:07;;;;;;;2.53;1.30;;;17.00;99.90;;;;;;5005819;28;20227;-78
2022/07/07 01:56:58;;;;;;;2.35;1.20;;;17.00;99.90;;;;;;5020916;28;20599;-79
2022/07/07 01:59:47;;;;;;;3.10;1.23;;;17.00;99.90;;;;;;5021147;28;20222;-78
2022/07/07 02:02:35;;;;;;;1.92;1.30;;;17.00;99.90;;;;;;5018652;28;20221;-78
2022/07/07 02:05:24;;;;;;;2.60;1.50;;;17.00;99.90;;;;;;5016289;28;20672;-78
2022/07/07 02:08:12;;;;;;;1.95;1.20;;;16.90;99.90;;;;;;5015891;28;20236;-77
2022/07/07 02:11:13;;;;;;;5.00;1.52;;;17.00;99.90;;;;;;5020135;28;20311;-77
2022/07/07 02:14:03;;;;;;;3.35;1.52;;;17.00;99.90;;;;;;5006922;28;20221;-78
2022/07/07 02:16:52;;;;;;;4.05;1.25;;;17.00;99.90;;;;;;5007718;28;20236;-75
2022/07/07 02:19:41;;;;;;;2.33;1.30;;;16.90;99.90;;;;;;5005668;28;20233;-78
2022/07/07 02:22:30;;;;;;;1.60;1.20;;;17.00;99.90;;;;;;5010522;28;20317;-77
2022/07/07 02:25:18;;;;;;;1.20;1.10;;;17.00;99.90;;;;;;5016178;28;20331;-77
2022/07/07 02:28:07;;;;;;;2.22;1.30;;;17.00;99.90;;;;;;5016377;28;20665;-78
2022/07/07 02:31:01;;;;;;;1.92;0.90;;;16.80;99.90;;;;;;5007300;28;20238;-78
2022/07/07 02:33:49;;;;;;;2.63;1.20;;;17.00;99.90;;;;;;5008870;28;20401;-78
2022/07/07 02:36:38;;;;;;;1.48;1.02;;;16.90;99.90;;;;;;4996795;28;20218;-77
2022/07/07 02:39:26;;;;;;;2.50;1.00;;;16.90;99.90;;;;;;5004147;28;20226;-78
2022/07/07 02:42:15;;;;;;;3.08;1.33;;;17.00;99.90;;;;;;5022562;28;20228;-78
2022/07/07 02:45:04;;;;;;;4.07;1.20;;;17.00;99.90;;;;;;5022973;28;20217;-77
2022/07/07 02:47:54;;;;;;;4.35;1.20;;;16.90;99.90;;;;;;5014477;28;20625;-77
2022/07/07 02:50:43;;;;;;;4.72;1.20;;;17.00;99.90;;;;;;5004278;28;20236;-77
2022/07/07 02:53:34;;;;;;;2.88;1.20;;;16.80;99.90;;;;;;5024648;28;20229;-77
2022/07/07 02:56:22;;;;;;;5.53;1.00;;;16.80;99.90;;;;;;5024776;28;20576;-78
2022/07/07 02:59:11;;;;;;;3.30;1.15;;;16.80;99.90;;;;;;5024253;28;20233;-77
2022/07/07 03:02:03;;;;;;;4.43;1.20;;;16.90;99.90;;;;;;5022035;28;20679;-77
2022/07/07 03:04:53;;;;;;;1.50;1.00;;;17.00;99.90;;;;;;5022388;28;20237;-76
2022/07/07 03:07:42;;;;;;;2.70;0.98;;;17.00;99.90;;;;;;5023749;28;20331;-81
2022/07/07 03:10:31;;;;;;;2.85;1.40;;;17.00;99.90;;;;;;5021853;28;20251;-82
2022/07/07 03:13:20;;;;;;;2.25;1.42;;;17.10;99.90;;;;;;5017830;28;20242;-83
2022/07/07 03:16:08;;;;;;;4.40;1.35;;;17.00;99.90;;;;;;5021822;28;20604;-83
2022/07/07 03:18:59;;;;;;;2.70;1.10;;;17.10;99.90;;;;;;5031016;28;20216;-78
2022/07/07 03:21:48;;;;;;;4.25;1.20;;;17.00;99.90;;;;;;5012215;28;21030;-77
2022/07/07 03:24:37;;;;;;;5.30;1.55;;;17.00;99.90;;;;;;5022330;28;20238;-78
2022/07/07 03:27:26;;;;;;;6.30;1.25;;;17.00;99.90;;;;;;5018652;28;20222;-79
2022/07/07 03:30:14;;;;;;;6.07;1.33;;;17.10;99.90;;;;;;5005749;28;20220;-79
2022/07/07 03:33:04;;;;;;;5.07;1.35;;;17.10;99.90;;;;;;5031072;28;20225;-79
2022/07/07 03:35:52;;;;;;;1.95;1.35;;;17.10;99.90;;;;;;5028576;28;20216;-79
2022/07/07 03:38:42;;;;;;;4.15;1.50;;;17.20;99.90;;;;;;5030899;28;20724;-81
2022/07/07 03:41:31;;;;;;;1.58;1.33;;;;;;;;;;5032563;28;20226;-80
2022/07/07 03:44:20;;;;;;;3.85;1.95;;;17.20;99.90;;;;;;5021799;28;20229;-78
2022/07/07 03:47:09;;;;;;;6.60;1.50;;;17.10;99.90;;;;;;5017488;28;20233;-80
2022/07/07 03:49:58;;;;;;;2.83;1.65;;;17.20;99.90;;;;;;5021759;28;20222;-78
2022/07/07 03:52:46;;;;;;;3.22;1.58;;;17.30;99.90;;;;;;5017060;28;20229;-79
2022/07/07 03:55:37;;;;;;;4.35;1.60;;;17.30;99.90;;;;;;5020333;28;20218;-80
2022/07/07 03:58:29;;;;;;;2.35;1.33;;;17.30;99.90;;;;;;5018649;28;20232;-81
2022/07/07 04:01:17;;;;;;;2.83;1.63;;;17.30;99.90;;;;;;5026818;28;20228;-81
2022/07/07 04:04:06;;;;;;;2.60;1.92;;;17.40;99.90;;;;;;5023460;28;20234;-81
2022/07/07 04:06:55;;;;;;;2.70;1.40;;;17.40;99.90;;;;;;5011829;28;20750;-80
2022/07/07 04:09:43;;;;;;;4.35;1.70;;;17.40;99.90;;;;;;5021851;28;20241;-80
2022/07/07 04:12:33;;;;;;;4.70;1.33;;;17.40;99.90;;;;;;5022358;28;20226;-80
2022/07/07 04:15:22;;;;;;;4.32;1.50;;;17.50;99.90;;;;;;5020165;28;20248;-82
2022/07/07 04:18:11;;;;;;;7.63;1.60;;;17.60;99.90;;;;;;5024464;28;20222;-83
2022/07/07 04:20:59;;;;;;;5.20;1.73;;;17.60;99.90;;;;;;5026462;28;20225;-78
2022/07/07 04:23:48;;;;;;;3.67;1.42;;;17.70;99.90;;;;;;5020681;28;20537;-80
2022/07/07 04:26:37;;;;;;;2.50;1.27;;;17.80;99.90;;;;;;5013093;28;20225;-80
2022/07/07 04:29:30;;;;;;;2.10;1.52;;;17.90;99.90;;;;;;5020153;28;20225;-81
2022/07/07 04:32:19;;;;;;;3.33;1.42;;;17.90;99.90;;;;;;5022359;28;20408;-81
2022/07/07 04:35:09;;;;;;;4.13;1.42;;;17.90;99.90;;;;;;5001932;28;20222;-81
2022/07/07 04:37:58;;;;;;;5.22;1.50;;;18.00;99.90;;;;;;5019247;28;20217;-81
2022/07/07 04:40:46;;;;;;;3.67;1.60;;;18.10;99.90;;;;;;5017720;28;20237;-80
2022/07/07 04:43:35;;;;;;;4.57;1.70;;;18.00;99.90;;;;;;5017964;28;20222;-80
2022/07/07 04:46:25;;;;;;;4.03;1.50;;;18.00;99.90;;;;;;5023558;28;20282;-79
2022/07/07 04:49:13;;;;;;;3.03;1.40;;;18.00;99.90;;;;;;5015264;28;20684;-79
2022/07/07 04:52:08;;;;;;;4.15;1.80;;;18.00;99.90;;;;;;5008262;28;20613;-78
2022/07/07 04:54:57;;;;;;;2.40;1.40;;;18.20;99.90;;;;;;4993439;28;20232;-79
2022/07/07 04:57:46;;;;;;;5.82;1.60;;;18.20;99.90;;;;;;5015579;28;20316;-74
2022/07/07 05:00:34;;;;;;;3.72;1.50;;;18.20;99.90;;;;;;5005847;28;20225;-78
2022/07/07 05:03:24;;;;;;;4.15;1.55;;;18.20;99.90;;;;;;5016474;28;20239;-78
2022/07/07 05:06:13;;;;;;;5.97;1.60;;;18.10;99.90;;;;;;5018996;28;20222;-78
2022/07/07 05:09:02;;;;;;;3.47;1.67;;;18.20;99.90;;;;;;5017824;28;20221;-79
2022/07/07 05:11:50;;;;;;;3.63;1.85;;;18.30;99.90;;;;;;5008231;28;20234;-78
2022/07/07 05:14:39;;;;;;;4.00;1.60;;;18.40;99.90;;;;;;5013685;28;20296;-79
2022/07/07 05:17:28;;;;;;;10.85;1.55;;;18.40;99.90;;;;;;5004674;28;20213;-80
2022/07/07 05:20:18;;;;;;;7.13;1.60;;;18.50;99.90;;;;;;5008342;28;20316;-78
2022/07/07 05:23:07;;;;;;;3.22;1.42;;;18.50;99.90;;;;;;5017250;28;20228;-77
2022/07/07 05:25:55;;;;;;;4.13;1.38;;;18.50;99.90;;;;;;5007417;28;20304;-76
2022/07/07 05:28:44;;;;;;;3.03;1.70;;;18.70;99.90;;;;;;5012736;28;20244;-79
2022/07/07 05:31:32;;;;;;;5.43;1.92;;;18.80;99.90;;;;;;5022452;28;20217;-78
2022/07/07 05:34:22;;;;;;;4.10;1.27;;;18.80;99.90;;;;;;5014211;28;20577;-78
2022/07/07 05:37:11;;;;;;;5.53;1.40;;;18.90;99.90;;;;;;5017107;28;20222;-79
2022/07/07 05:40:00;;;;;;;4.82;1.40;;;18.70;99.90;;;;;;5019114;28;20226;-77
2022/07/07 05:42:49;;;;;;;2.92;1.60;;;18.70;99.90;;;;;;5019524;28;20228;-74
2022/07/07 05:45:41;;;;;;;3.80;1.33;;;18.80;99.90;;;;;;5018574;28;20248;-74
2022/07/07 05:48:30;;;;;;;2.05;1.05;;;19.00;99.90;;;;;;5004734;28;20276;-75
2022/07/07 05:51:18;;;;;;;2.28;1.40;;;19.10;99.90;;;;;;5004538;28;20236;-75
2022/07/07 05:54:08;;;;;;;7.70;1.35;;;19.20;99.90;;;;;;5001195;28;20237;-76
2022/07/07 05:57:00;;;;;;;4.70;1.38;;;19.40;99.90;;;;;;5013241;28;20330;-76
2022/07/07 05:59:49;;;;;;;4.65;1.33;;;19.40;99.90;;;;;;5016093;28;20730;-76
2022/07/07 06:02:37;;;;;;;10.50;1.67;;;19.60;99.90;;;;;;5012621;28;20235;-77
2022/07/07 06:05:26;;;;;;;5.43;2.42;;;19.60;99.90;;;;;;5024533;28;20248;-77
2022/07/07 06:08:17;;;;;;;2.13;1.40;;;19.60;99.90;;;;;;5007974;28;20221;-78
2022/07/07 06:11:07;;;;;;;3.28;1.50;;;19.30;99.90;;;;;;5005164;28;22532;-77
2022/07/07 06:13:56;;;;;;;8.93;1.85;;;19.30;99.90;;;;;;5015392;28;20362;-77
2022/07/07 06:16:45;;;;;;;4.82;1.80;;;19.20;99.90;;;;;;5012792;28;20214;-78
2022/07/07 06:19:37;;;;;;;4.65;1.88;;;19.10;99.90;;;;;;5026113;28;20225;-82
2022/07/07 06:22:26;;;;;;;6.43;1.60;;;19.40;99.90;;;;;;5030569;28;20234;-80
2022/07/07 06:25:14;;;;;;;4.05;1.75;;;19.40;99.90;;;;;;5006926;28;20283;-77
2022/07/07 06:28:05;;;;;;;3.65;1.90;;;19.30;99.90;;;;;;5006470;28;20267;-79
2022/07/07 06:30:53;;;;;;;11.07;2.22;;;19.30;99.90;;;;;;5009731;28;20236;-76
2022/07/07 06:33:42;;;;;;;4.15;1.98;;;19.40;99.90;;;;;;5022619;28;20329;-76
2022/07/07 06:36:31;;;;;;;5.70;2.40;;;19.60;99.90;;;;;;5032462;28;20353;-76
2022/07/07 06:39:20;;;;;;;5.30;2.50;;;19.60;99.90;;;;;;5017165;28;20305;-76
2022/07/07 06:42:08;;;;;;;4.13;1.70;;;19.90;99.90;;;;;;5020576;28;20237;-77
2022/07/07 06:45:03;;;;;;;1.90;1.30;;;20.00;99.90;;;;;;5007199;28;20221;-77
2022/07/07 06:47:52;;;;;;;4.93;1.73;;;20.00;99.90;;;;;;5019773;28;20218;-77
2022/07/07 06:50:45;;;;;;;2.90;1.50;;;20.10;99.90;;;;;;4989496;28;20226;-77
2022/07/07 06:53:34;;;;;;;4.75;1.38;;;20.30;99.90;;;;;;4997977;28;20218;-77
2022/07/07 06:56:22;;;;;;;6.15;1.30;;;20.60;99.90;;;;;;4996954;28;20902;-78
2022/07/07 06:59:11;;;;;;;1.27;1.00;;;20.40;99.90;;;;;;4999864;28;20317;-77
2022/07/07 07:02:01;;;;;;;5.80;1.63;;;20.40;99.90;;;;;;4983150;28;20229;-76
2022/07/07 07:04:50;;;;;;;4.85;1.30;;;20.20;99.90;;;;;;5002590;28;20556;-74
2022/07/07 07:07:39;;;;;;;2.95;1.10;;;20.40;99.90;;;;;;4989888;28;20238;-74
2022/07/07 07:10:31;;;;;;;2.60;1.30;;;20.80;99.90;;;;;;4995412;28;20222;-72
2022/07/07 07:13:19;;;;;;;11.70;1.30;;;21.20;99.90;;;;;;4988398;28;20233;-73
2022/07/07 07:16:08;;;;;;;4.65;0.90;;;21.70;99.90;;;;;;4995316;28;20226;-74
2022/07/07 07:18:58;;;;;;;3.03;1.20;;;21.80;99.90;;;;;;5001564;28;20291;-74
2022/07/07 07:21:47;;;;;;;4.57;2.00;;;21.50;99.90;;;;;;4986377;28;20214;-73
2022/07/07 07:24:36;;;;;;;1.30;0.90;;;21.90;99.90;;;;;;4970061;28;20217;-70
2022/07/07 07:27:24;;;;;;;3.33;0.70;;;21.70;99.90;;;;;;4987998;28;20238;-68
2022/07/07 07:30:14;;;;;;;5.10;1.10;;;21.60;99.90;;;;;;4995790;28;20701;-70
2022/07/07 07:33:06;;;;;;;8.07;1.08;;;21.80;99.90;;;;;;4999133;28;20387;-70
2022/07/07 07:35:56;;;;;;;2.03;1.00;;;22.10;99.90;;;;;;4997570;28;20527;-69
2022/07/07 07:38:44;;;;;;;1.27;0.80;;;22.20;99.90;;;;;;5006200;28;20230;-69
2022/07/07 07:41:33;;;;;;;2.40;1.08;;;22.10;99.90;;;;;;4982081;28;20227;-71
2022/07/07 07:47:24;;;;;;;2.03;0.90;;;22.40;99.90;;;;;;4989335;28;22222;-72
2022/07/07 07:50:18;;;;;;;1.35;0.80;;;22.70;97.00;;;;;;4994574;28;20628;-73
2022/07/07 07:53:08;;;;;;;1.08;0.80;;;22.70;97.00;;;;;;4996967;28;20233;-73
2022/07/07 07:55:57;;;;;;;4.10;1.20;;;22.90;98.30;;;;;;5003874;28;20222;-73
2022/07/07 07:58:45;;;;;;;2.97;0.80;;;23.10;96.90;;;;;;5004539;28;20213;-74
2022/07/07 08:01:34;;;;;;;1.80;1.05;;;22.90;95.50;;;;;;4989444;28;20944;-73
2022/07/07 08:04:23;;;;;;;3.83;0.90;;;22.50;95.00;;;;;;4997583;28;20529;-71
2022/07/07 08:07:12;;;;;;;1.98;0.80;;;22.50;98.70;;;;;;4998313;28;20233;-71
2022/07/07 08:10:02;;;;;;;3.17;1.02;;;22.50;95.60;;;;;;5000080;28;20234;-74
2022/07/07 08:12:50;;;;;;;4.82;1.00;;;22.50;95.10;;;;;;4983843;28;20649;-72
2022/07/07 08:15:39;;;;;;;1.55;0.98;;;22.80;95.60;;;;;;5000424;28;20306;-74
2022/07/07 08:18:29;;;;;;;2.42;0.80;;;23.00;94.60;;;;;;5003509;28;20222;-75
2022/07/07 08:21:18;;;;;;;2.17;0.90;;;23.10;92.70;;;;;;4988761;28;20237;-72
2022/07/07 08:24:07;;;;;;;2.20;0.90;;;23.20;92.20;;;;;;5001408;28;20218;-74
2022/07/07 08:26:57;;;;;;;4.45;1.27;;;23.20;92.30;;;;;;5001083;28;20218;-73
2022/07/07 08:29:46;;;;;;;2.85;0.90;;;23.60;93.60;;;;;;5002827;28;20229;-74
2022/07/07 08:32:34;;;;;;;4.47;1.20;;;24.10;93.70;;;;;;4987996;28;20322;-74
2022/07/07 08:35:23;;;;;;;1.20;1.08;;;24.40;93.30;;;;;;5007167;28;20214;-74
2022/07/07 08:38:12;;;;;;;2.58;0.98;;;24.10;92.70;;;;;;4995320;28;20223;-73
2022/07/07 08:41:00;;;;;;;5.55;0.90;;;24.10;92.00;;;;;;5000967;28;20241;-74
2022/07/07 08:43:51;;;;;;;2.80;0.80;;;23.50;90.80;;;;;;4987310;28;20547;-72
2022/07/07 08:46:42;;;;;;;1.23;0.93;;;23.10;90.50;;;;;;4999018;28;20229;-73
2022/07/07 08:49:31;;;;;;;2.78;0.80;;;23.40;91.10;;;;;;5011021;28;20237;-72
2022/07/07 08:52:20;;;;;;;2.22;1.00;;;23.80;90.00;;;;;;5018414;28;20591;-74
2022/07/07 08:55:11;;;;;;;5.30;1.10;;;23.70;89.70;;;;;;5023070;28;20233;-73
2022/07/07 08:58:01;;;;;;;3.22;0.90;;;24.20;90.30;;;;;;5020269;28;20217;-72
2022/07/07 09:00:53;;;;;;;2.38;1.00;;;24.90;90.00;;;;;;5004129;28;20225;-72
2022/07/07 09:03:42;;;;;;;2.90;0.95;;;25.00;83.00;;;;;;5023533;28;20236;-73
2022/07/07 09:06:32;;;;;;;1.50;0.80;;;25.00;79.30;;;;;;5006347;28;20236;-74
2022/07/07 09:09:29;;;;;;;1.50;0.80;;;25.20;78.50;;;;;;5022809;28;20590;-73
2022/07/07 09:12:18;;;;;;;2.35;0.95;;;25.20;81.10;;;;;;5020901;28;20727;-73
2022/07/07 09:15:11;;;;;;;2.63;1.10;;;25.60;76.70;;;;;;5019687;28;20695;-75
2022/07/07 09:18:01;;;;;;;3.75;1.45;;;25.70;77.40;;;;;;5020841;28;20229;-76
2022/07/07 09:20:50;;;;;;;1.08;0.80;;;26.30;75.30;;;;;;5016944;28;20222;-73
2022/07/07 09:23:52;;;;;;;2.03;1.15;;;27.30;71.70;;;;;;5023659;28;20221;-74
2022/07/07 09:26:42;;;;;;;1.83;0.80;;;28.50;68.60;;;;;;5010710;28;20738;-74
2022/07/07 09:29:31;;;;;;;1.95;1.00;;;29.60;62.30;;;;;;5011784;28;20241;-73
2022/07/07 09:32:19;;;;;;;4.72;0.98;;;30.20;62.60;;;;;;5021969;28;20289;-74
2022/07/07 09:38:13;;;;;;;3.45;0.90;;;28.30;60.50;;;;;;5021195;28;20233;-74
2022/07/07 09:38:31;;;;;;;2.17;0.80;;;27.20;65.50;;;;;;5021693;28;20236;-74
2022/07/07 09:41:20;;;;;;;2.25;0.75;;;26.50;66.10;;;;;;5017140;28;20589;-73
2022/07/07 09:44:19;;;;;;;1.25;0.90;;;25.80;67.60;;;;;;5012893;28;20221;-74
2022/07/07 09:47:09;;;;;;;6.35;1.00;;;25.50;68.90;;;;;;5020594;28;20217;-73
2022/07/07 09:50:00;;;;;;;3.20;0.98;;;25.40;74.10;;;;;;5003122;28;20238;-74
2022/07/07 09:52:50;;;;;;;2.20;0.90;;;25.80;72.60;;;;;;5019349;28;20251;-74
2022/07/07 09:55:39;;;;;;;3.40;1.00;;;25.90;68.10;;;;;;5019672;28;20217;-74
2022/07/07 09:58:28;;;;;;;5.18;0.90;;;25.70;69.60;;;;;;5015248;28;20233;-73
2022/07/07 10:01:18;;;;;;;2.05;0.95;;;26.70;71.00;;;;;;5007342;28;20218;-72
2022/07/07 10:04:09;;;;;;;4.68;0.82;;;26.70;69.30;;;;;;5008880;28;20510;-74
2022/07/07 10:06:59;;;;;;;2.55;0.93;;;29.70;68.00;;;;;;5008602;28;20216;-74
2022/07/07 10:09:53;;;;;;;1.52;0.80;;;31.00;58.50;;;;;;5005433;28;20625;-72
2022/07/07 10:12:45;;;;;;;2.60;0.77;;;34.20;55.10;;;;;;5017346;28;20232;-74
2022/07/07 10:15:36;;;;;;;3.15;0.90;;;34.50;50.30;;;;;;5017385;28;20225;-73
2022/07/07 10:18:25;;;;;;;2.20;0.80;;;33.30;50.10;;;;;;5003092;28;20236;-74
2022/07/07 10:21:15;;;;;;;2.67;0.93;;;33.80;49.40;;;;;;5008691;28;20235;-75
2022/07/07 10:24:05;;;;;;;6.63;1.10;;;33.60;48.40;;;;;;5014788;28;20235;-75
2022/07/07 10:26:56;;;;;;;2.22;0.73;;;32.20;52.30;;;;;;5015319;28;20319;-74
2022/07/07 10:29:47;;;;;;;1.75;1.00;;;32.80;48.30;;;;;;5021180;28;20225;-75
2022/07/07 10:32:41;;;;;;;1.10;0.70;;;32.30;48.30;;;;;;5014034;28;20300;-75
2022/07/07 10:35:42;;;;;;;1.33;0.80;;;30.70;48.60;;;;;;5021513;28;20315;-74
2022/07/07 10:38:31;;;;;;;2.55;0.93;;;32.80;50.20;;;;;;5020083;28;20228;-75
2022/07/07 10:41:24;;;;;;;1.65;0.77;;;34.20;48.30;;;;;;5006556;28;20707;-74
2022/07/07 10:44:19;;;;;;;1.50;1.00;;;35.00;46.20;;;;;;5019300;28;21072;-75
2022/07/07 10:47:30;;;;;;;2.03;1.00;;;33.20;48.40;;;;;;5022457;28;20261;-74
2022/07/07 10:50:27;;;;;;;2.33;0.90;;;32.80;48.10;;;;;;5004373;28;20247;-75
2022/07/07 10:53:30;;;;;;;0.98;0.65;;;30.90;51.70;;;;;;5006520;28;20247;-73
2022/07/07 10:56:19;;;;;;;3.67;0.88;;;30.70;49.20;;;;;;5023479;28;20644;-75
2022/07/07 10:59:09;;;;;;;1.17;0.80;;;29.10;53.50;;;;;;5020238;28;20235;-74
2022/07/07 11:02:13;;;;;;;1.15;0.90;;;27.50;54.90;;;;;;5003548;28;20295;-74
2022/07/07 11:05:38;;;;;;;0.90;0.80;;;26.40;59.00;;;;;;5023053;28;20315;-73
2022/07/07 11:08:36;;;;;;;2.47;1.25;;;27.80;57.80;;;;;;5013683;28;20242;-74
2022/07/07 11:11:25;;;;;;;2.55;0.98;;;27.50;56.60;;;;;;5021489;28;20237;-75
2022/07/07 11:14:13;;;;;;;1.75;0.95;;;28.90;57.10;;;;;;5024050;28;20224;-74
2022/07/07 11:17:23;;;;;;;2.70;1.08;;;30.90;52.50;;;;;;5023271;28;20231;-75
2022/07/07 11:20:15;;;;;;;1.98;0.90;;;32.50;50.40;;;;;;5019884;28;20224;-76
2022/07/07 11:23:13;;;;;;;2.55;1.10;;;33.20;49.60;;;;;;5018261;28;20252;-75
2022/07/07 11:26:01;;;;;;;1.10;0.80;;;34.10;48.00;;;;;;5008673;28;20209;-76
2022/07/07 11:28:52;;;;;;;1.10;0.60;;;33.30;46.40;;;;;;5022464;28;20686;-75
2022/07/07 11:31:40;;;;;;;2.50;0.90;;;32.50;46.60;;;;;;5025037;28;20240;-75
2022/07/07 11:34:42;;;;;;;1.02;0.82;;;33.20;46.60;;;;;;5022666;28;20235;-74
2022/07/07 11:37:31;;;;;;;1.83;0.70;;;33.00;46.00;;;;;;5018044;28;20240;-74
2022/07/07 11:40:26;;;;;;;3.42;0.93;;;30.70;47.80;;;;;;5019847;28;20323;-74
2022/07/07 11:43:21;;;;;;;3.58;1.10;;;28.70;51.80;;;;;;5017537;28;20233;-73
2022/07/07 11:46:10;;;;;;;8.77;1.27;;;27.90;53.40;;;;;;5019199;28;20604;-75
2022/07/07 11:48:58;;;;;;;2.35;0.98;;;27.90;55.40;;;;;;5011974;28;20284;-74
2022/07/07 11:51:49;;;;;;;1.83;0.90;;;27.50;53.70;;;;;;5020345;28;20324;-73
2022/07/07 11:54:48;;;;;;;2.55;0.90;;;26.60;55.70;;;;;;5011683;28;20256;-75
2022/07/07 11:57:37;;;;;;;2.70;1.00;;;25.80;57.10;;;;;;5020708;28;20743;-76
2022/07/07 12:00:28;;;;;;;5.25;1.10;;;25.40;57.90;;;;;;5019636;28;20244;-74
2022/07/07 12:03:17;;;;;;;1.73;0.90;;;25.00;58.50;;;;;;5022309;28;20266;-75
2022/07/07 12:06:06;;;;;;;2.83;1.23;;;24.80;58.70;;;;;;5007388;28;20509;-75
2022/07/07 12:08:57;;;;;;;3.33;1.20;;;25.00;59.00;;;;;;5020359;28;20213;-75
2022/07/07 12:11:45;;;;;;;4.70;1.90;;;26.00;57.00;;;;;;5021297;28;20230;-74
2022/07/07 12:14:34;;;;;;;1.65;0.93;;;26.10;57.60;;;;;;5018864;28;20288;-74
2022/07/07 12:17:36;;;;;;;2.92;0.80;;;26.90;57.40;;;;;;5014405;28;20225;-73
2022/07/07 12:20:25;;;;;;;2.20;1.10;;;28.90;54.40;;;;;;5022672;28;20255;-75
2022/07/07 12:23:18;;;;;;;1.02;0.93;;;31.70;51.90;;;;;;5022724;28;20253;-75
2022/07/07 12:26:13;;;;;;;2.22;1.00;;;32.40;48.50;;;;;;5022803;28;20225;-75
2022/07/07 12:29:02;;;;;;;4.78;0.93;;;31.30;48.40;;;;;;5022895;28;20228;-76
2022/07/07 12:31:52;;;;;;;1.35;1.15;;;32.70;48.40;;;;;;5021023;28;20220;-74
2022/07/07 12:34:45;;;;;;;1.70;0.90;;;33.70;46.80;;;;;;5013131;28;20225;-76
2022/07/07 12:37:42;;;;;;;3.33;1.23;;;33.90;45.90;;;;;;5001062;28;20232;-74
2022/07/07 12:40:32;;;;;;;1.92;0.90;;;34.10;43.20;;;;;;5019685;28;20260;-75
2022/07/07 12:43:32;;;;;;;2.63;0.90;;;34.60;43.70;;;;;;5015963;28;20221;-75
2022/07/07 12:46:21;;;;;;;1.42;0.90;;;32.40;44.10;;;;;;5016552;28;21039;-74
2022/07/07 12:49:11;;;;;;;0.98;0.88;;;31.40;45.80;;;;;;5015792;28;20250;-73
2022/07/07 12:51:59;;;;;;;2.05;1.08;;;31.80;46.10;;;;;;5020331;28;20213;-77
2022/07/07 12:54:48;;;;;;;3.78;1.00;;;31.70;47.40;;;;;;5006184;28;20228;-73
2022/07/07 12:57:37;;;;;;;2.38;1.10;;;29.80;48.80;;;;;;5016748;28;20308;-74
2022/07/07 13:00:27;;;;;;;2.13;1.15;;;28.70;51.80;;;;;;5006385;28;20217;-75
2022/07/07 13:03:16;;;;;;;1.45;1.10;;;28.20;54.40;;;;;;5017637;28;20545;-75
2022/07/07 13:06:05;;;;;;;1.45;1.10;;;27.90;54.50;;;;;;5015142;28;20228;-75
2022/07/07 13:08:54;;;;;;;1.75;1.00;;;27.50;54.40;;;;;;5003816;28;20243;-75
2022/07/07 13:12:03;;;;;;;5.95;1.10;;;26.90;55.10;;;;;;5020691;28;20213;-72
2022/07/07 13:14:51;;;;;;;3.60;1.00;;;26.60;58.00;;;;;;5023037;28;20303;-72
2022/07/07 13:17:42;;;;;;;2.65;1.27;;;25.90;57.20;;;;;;5009654;28;20225;-73
2022/07/07 13:20:31;;;;;;;2.13;1.10;;;25.90;59.50;;;;;;5013116;28;20226;-74
2022/07/07 13:23:20;;;;;;;1.45;1.00;;;25.70;59.70;;;;;;5015952;28;20304;-74
2022/07/07 13:26:10;;;;;;;2.00;1.20;;;25.40;59.10;;;;;;5020878;28;20245;-74
2022/07/07 13:28:59;;;;;;;2.53;1.20;;;25.20;60.40;;;;;;5012943;28;20233;-75
2022/07/07 13:31:48;;;;;;;3.55;1.02;;;25.30;61.70;;;;;;5016071;28;20561;-74
2022/07/07 13:34:38;;;;;;;3.33;1.05;;;25.00;59.90;;;;;;5016156;28;20811;-75
2022/07/07 13:37:31;;;;;;;2.08;1.40;;;24.90;60.60;;;;;;5018822;28;20274;-78
2022/07/07 13:40:20;;;;;;;2.13;1.00;;;24.50;61.00;;;;;;5018703;28;20217;-76
2022/07/07 13:43:17;;;;;;;2.65;1.40;;;24.40;62.30;;;;;;5003291;28;20237;-74
2022/07/07 13:46:06;;;;;;;3.03;1.00;;;24.60;62.70;;;;;;5004283;28;20221;-76
2022/07/07 13:48:55;;;;;;;2.17;1.20;;;24.50;62.10;;;;;;5020498;28;20260;-75
2022/07/07 13:51:45;;;;;;;4.22;1.25;;;24.50;62.00;;;;;;5012699;28;20233;-77
2022/07/07 13:54:37;;;;;;;2.25;1.10;;;24.20;62.70;;;;;;5019983;28;20612;-76
2022/07/07 13:57:31;;;;;;;1.98;0.98;;;24.20;62.30;;;;;;5003151;28;20253;-75
2022/07/07 14:00:20;;;;;;;2.40;1.27;;;24.30;63.50;;;;;;5004828;28;20221;-76
2022/07/07 14:03:08;;;;;;;2.20;1.20;;;24.20;63.80;;;;;;5012492;28;20598;-74
2022/07/07 14:05:57;;;;;;;2.85;1.30;;;24.20;64.90;;;;;;5014959;28;20781;-74
2022/07/07 14:08:47;;;;;;;1.40;1.20;;;24.10;64.50;;;;;;5019404;28;20213;-75
2022/07/07 14:11:36;;;;;;;1.65;0.95;;;24.40;66.10;;;;;;5004051;28;20240;-74
2022/07/07 14:14:24;;;;;;;3.88;1.00;;;24.20;64.70;;;;;;4998397;28;20218;-75
2022/07/07 14:17:13;;;;;;;4.13;1.10;;;24.10;64.80;;;;;;5019037;28;20229;-74
2022/07/07 14:20:02;;;;;;;3.08;1.00;;;24.00;66.00;;;;;;5004590;28;20228;-74
2022/07/07 14:22:50;;;;;;;1.85;1.10;;;24.00;64.80;;;;;;5026023;28;20229;-76
2022/07/07 14:25:40;;;;;;;1.73;0.88;;;23.90;65.00;;;;;;5011306;28;20232;-72
2022/07/07 14:28:29;;;;;;;2.80;1.17;;;23.90;65.80;;;;;;5021707;28;20268;-75
2022/07/07 14:31:20;;;;;;;2.28;1.25;;;23.90;65.60;;;;;;5003996;28;20217;-75
2022/07/07 14:34:09;;;;;;;3.67;1.13;;;24.20;66.80;;;;;;5019962;28;20722;-75
2022/07/07 14:36:58;;;;;;;3.53;1.30;;;24.30;65.90;;;;;;5023972;28;20229;-77
2022/07/07 14:39:46;;;;;;;2.53;0.98;;;24.40;65.30;;;;;;5015162;28;20225;-75
2022/07/07 14:42:36;;;;;;;1.90;1.00;;;24.60;65.50;;;;;;5019416;28;20496;-75
2022/07/07 14:45:25;;;;;;;2.05;1.50;;;24.70;66.00;;;;;;5004672;28;20226;-75
2022/07/07 14:48:15;;;;;;;2.15;1.30;;;24.60;62.60;;;;;;5008389;28;20226;-79
2022/07/07 14:51:04;;;;;;;1.73;1.20;;;24.80;64.30;;;;;;5018213;28;20217;-77